KOXC/OXC METAR and TAF weather

Enter ICAO airport designator
Station Type Date Time Source
KOXC METAR 2019/08/22 19:51 UTC NOAA

KOXC 221951Z 00000KT 10SM FEW050 SCT065 30/19 A2987 RMK AO2 SLP120 T03000194


Station Type Date Time Source
KOXC Decoded METAR 2019/08/22 19:51 UTC NOAA

Station name not available
Aug 22, 2019 - 03:51 PM EDT / 2019.08.22 1951 UTC
Wind: Calm:0
Visibility: 10 mile(s):0
Sky conditions: partly cloudy
Temperature: 86.0 F (30.0 C)
Dew Point: 66.9 F (19.4 C)
Relative Humidity: 53%
Pressure (altimeter): 29.87 in. Hg (1011 hPa)
ob: KOXC 221951Z 00000KT 10SM FEW050 SCT065 30/19 A2987 RMK AO2 SLP120 T03000194
cycle: 20

Station Type Date Time Source
KOXC TAF UTC NOAA

Error!

Example: see airport list